Wind From: 11-12-2017 07:30 Until: 12-12-2017 06:00 warning for: Wind Level: Orange info button

Power and phone distribution networks may be disrupted for relatively long periods., Roofs and chimneys can be damaged. , Tree branches may break. , Vehicles can be deported. , Traffic may be disrupted, particularly on secondary roads in forest areas. Limit your trips. , Limit your speed in highway driving, especially if you drive a vehicle or hitch sensitive to wind. , Do not go for walks in forests or along the coast., In town, be vigilant against possible falling objects., Do not work on roofs and do not touch any electrical line fallen on the ground., Store or secure sensitive objects to wind or likely to be damaged., Always install power generators outside buildings. 


Meteo18 Weather Cam more information Meteo18 Weather Cam


Thunder radar more information blitzortung!


Rain radar more information rain snow radar


Visit our other weather sites:

Template documentation
and downloads

And another site



Weather Underground History page Text

Daily Summary for July 1, 2017 Units:  English    Metric   Both
« Previous Day
Next Day »
Daily Weekly Monthly Yearly Custom
  High: Low: Average:
Temperature: 61.2 °F 54.9 °F 57.6 °F
Dew Point: 59 °F 53.1 °F 55.8 °F
Humidity: 96 % 91 % 94 %
Wind Speed: 15 mph 0 mph 4.4 mph
Wind Gust: 18 mph - -
Wind:- - West
Pressure: 30.2 in 29.9 in -
Precipitation: 0.39 in    
Historical Graphs
 
 
Tabular Data for July 1, 2017
Time Temperature Dew Point Pressure Wind Wind Speed Wind Gust Humidity Rainfall Rate (Hourly)
00:02 55.6 °F 53.1 °F 29.9 in SSW 3 mph 11 mph 91 % 0 in
00:12 55.6 °F 53.1 °F 29.9 in SW 7 mph 10 mph 91 % 0 in
00:22 55.6 °F 53.2 °F 29.9 in SW 5 mph 12 mph 92 % 0 in
00:32 55.6 °F 53.2 °F 29.9 in WSW 3 mph 10 mph 92 % 0 in
00:42 55.6 °F 53.2 °F 29.9 in WSW 4 mph 10 mph 92 % 0 in
00:47 55.6 °F 53.2 °F 29.9 in WSW 3 mph 13 mph 92 % 0 in
00:52 55.6 °F 53.2 °F 29.9 in WSW 8 mph 13 mph 92 % 0 in
00:57 55.8 °F 53.4 °F 29.9 in WSW 5 mph 13 mph 92 % 0 in
01:02 55.8 °F 53.4 °F 29.9 in SW 7 mph 11 mph 92 % 0 in
01:12 55.8 °F 53.8 °F 29.9 in WSW 5 mph 11 mph 93 % 0 in
01:17 55.8 °F 53.8 °F 29.9 in SW 8 mph 11 mph 93 % 0 in
01:22 55.8 °F 53.8 °F 29.9 in WSW 4 mph 11 mph 93 % 0 in
01:32 55.8 °F 53.8 °F 29.9 in SW 7 mph 11 mph 93 % 0 in
01:42 55.8 °F 53.8 °F 29.9 in WSW 8 mph 11 mph 93 % 0 in
01:47 55.8 °F 53.8 °F 29.9 in SW 13 mph 13 mph 93 % 0 in
01:52 55.8 °F 53.8 °F 29.9 in SW 6 mph 11 mph 93 % 0 in
02:02 55.8 °F 53.8 °F 29.9 in WSW 3 mph 13 mph 93 % 0 in
02:12 55.6 °F 53.6 °F 29.9 in SW 6 mph 10 mph 93 % 0 in
02:17 55.6 °F 54 °F 29.9 in SW 4 mph 12 mph 94 % 0 in
02:22 55.6 °F 54 °F 29.9 in SW 7 mph 12 mph 94 % 0 in
02:32 55.4 °F 53.8 °F 29.9 in WSW 5 mph 9 mph 94 % 0 in
02:42 55.2 °F 53.6 °F 29.9 in SW 6 mph 12 mph 94 % 0.01 in
02:47 55.2 °F 53.8 °F 29.9 in WSW 7 mph 12 mph 95 % 0.01 in
02:52 55 °F 53.6 °F 29.9 in West 6 mph 12 mph 95 % 0.01 in
03:02 55 °F 53.6 °F 29.9 in West 3 mph 11 mph 95 % 0.02 in
03:07 55 °F 53.6 °F 29.9 in WSW 4 mph 14 mph 95 % 0.02 in
03:12 54.9 °F 53.4 °F 29.9 in WSW 13 mph 14 mph 95 % 0.02 in
03:17 54.9 °F 53.4 °F 29.9 in SW 2 mph 13 mph 95 % 0.02 in
03:22 54.9 °F 53.4 °F 29.9 in SSW 8 mph 13 mph 95 % 0.02 in
03:27 54.9 °F 53.4 °F 29.9 in SW 3 mph 13 mph 95 % 0.01 in
03:32 54.9 °F 53.4 °F 29.9 in SW 5 mph 12 mph 95 % 0.01 in
03:37 54.9 °F 53.4 °F 29.9 in SW 3 mph 12 mph 95 % 0.01 in
03:42 54.9 °F 53.4 °F 29.9 in South 2 mph 11 mph 95 % 0.01 in
03:47 54.9 °F 53.4 °F 29.9 in West 2 mph 10 mph 95 % 0 in
03:52 54.9 °F 53.4 °F 29.9 in West 5 mph 12 mph 95 % 0 in
03:57 54.9 °F 53.4 °F 29.9 in West 5 mph 12 mph 95 % 0 in
04:02 54.9 °F 53.4 °F 29.9 in SW 8 mph 12 mph 95 % 0 in
04:12 54.9 °F 53.4 °F 29.9 in SW 9 mph 12 mph 95 % 0.01 in
04:22 54.9 °F 53.4 °F 29.9 in WSW 6 mph 14 mph 95 % 0.01 in
04:27 54.9 °F 53.4 °F 30 in WSW 4 mph 14 mph 95 % 0.01 in
04:32 54.9 °F 53.4 °F 30 in WSW 7 mph 12 mph 95 % 0.01 in
04:37 54.9 °F 53.4 °F 30 in SW 9 mph 12 mph 95 % 0.01 in
04:42 54.9 °F 53.4 °F 30 in WSW 7 mph 12 mph 95 % 0.01 in
04:47 54.9 °F 53.4 °F 30 in SW 5 mph 13 mph 95 % 0.01 in
04:52 54.9 °F 53.4 °F 30 in WSW 3 mph 13 mph 95 % 0.01 in
04:57 54.9 °F 53.4 °F 30 in SW 5 mph 13 mph 95 % 0.02 in
05:02 54.9 °F 53.4 °F 30 in SW 6 mph 13 mph 95 % 0.02 in
05:07 54.9 °F 53.4 °F 30 in SW 5 mph 11 mph 95 % 0.01 in
05:12 54.9 °F 53.4 °F 30 in SW 3 mph 11 mph 95 % 0.01 in
05:17 54.9 °F 53.4 °F 30 in SW 3 mph 10 mph 95 % 0.02 in
05:27 54.9 °F 53.8 °F 30 in SSW 2 mph 10 mph 96 % 0.02 in
05:32 54.9 °F 53.8 °F 30 in WSW 2 mph 10 mph 96 % 0.02 in
05:37 55 °F 54 °F 30 in West 2 mph 8 mph 96 % 0.04 in
05:42 55 °F 54 °F 30 in North 1 mph 8 mph 96 % 0.04 in
05:47 55 °F 54 °F 30 in WSW 3 mph 9 mph 96 % 0.05 in
05:52 55 °F 54 °F 30 in SW 5 mph 9 mph 96 % 0.04 in
05:57 55 °F 54 °F 30 in West 7 mph 9 mph 96 % 0.04 in
06:02 55.2 °F 54.1 °F 30 in West 5 mph 9 mph 96 % 0.04 in
06:07 55.2 °F 54.1 °F 30 in WSW 3 mph 9 mph 96 % 0.04 in
06:12 55.2 °F 54.1 °F 30 in West 5 mph 9 mph 96 % 0.04 in
06:17 55.2 °F 54.1 °F 30 in WSW 3 mph 9 mph 96 % 0.03 in
06:22 55.2 °F 54.1 °F 30 in West 5 mph 8 mph 96 % 0.03 in
06:27 55.2 °F 54.1 °F 30 in WSW 7 mph 8 mph 96 % 0.03 in
06:32 55.2 °F 54.1 °F 30 in West 4 mph 9 mph 96 % 0.02 in
06:37 55.4 °F 54.3 °F 30 in West 4 mph 9 mph 96 % 0.02 in
06:42 55.4 °F 54.3 °F 30 in WSW 3 mph 8 mph 96 % 0 in
06:47 55.4 °F 54.3 °F 30 in West 3 mph 8 mph 96 % 0 in
06:52 55.6 °F 54.5 °F 30 in West 4 mph 8 mph 96 % 0 in
06:57 55.6 °F 54.5 °F 30 in West 3 mph 8 mph 96 % 0 in
07:02 55.6 °F 54.5 °F 30 in WSW 4 mph 8 mph 96 % 0 in
07:07 55.6 °F 54.5 °F 30 in WSW 4 mph 7 mph 96 % 0 in
07:12 55.6 °F 54.5 °F 30 in West 2 mph 7 mph 96 % 0 in
07:17 55.8 °F 54.7 °F 30 in West 5 mph 7 mph 96 % 0 in
07:22 55.8 °F 54.7 °F 30 in WSW 2 mph 7 mph 96 % 0 in
07:27 55.8 °F 54.7 °F 30 in West 2 mph 7 mph 96 % 0 in
07:32 55.8 °F 54.7 °F 30 in West 3 mph 7 mph 96 % 0 in
07:37 55.8 °F 54.7 °F 30 in WSW 3 mph 8 mph 96 % 0.01 in
07:42 55.9 °F 54.9 °F 30 in WNW 3 mph 8 mph 96 % 0.01 in
07:47 55.9 °F 54.9 °F 30 in West 2 mph 8 mph 96 % 0.01 in
07:52 55.9 °F 54.9 °F 30 in WSW 4 mph 8 mph 96 % 0.01 in
07:57 55.9 °F 54.9 °F 30 in West 3 mph 6 mph 96 % 0.01 in
08:02 55.9 °F 54.9 °F 30 in West 3 mph 6 mph 96 % 0.01 in
08:12 56.1 °F 54.7 °F 30 in WSW 3 mph 7 mph 95 % 0.01 in
08:17 56.1 °F 54.7 °F 30 in WSW 4 mph 7 mph 95 % 0.01 in
08:22 56.3 °F 54.9 °F 30 in WNW 3 mph 7 mph 95 % 0.01 in
08:27 56.5 °F 55 °F 30 in West 4 mph 7 mph 95 % 0.01 in
08:32 56.7 °F 55 °F 30 in West 2 mph 7 mph 94 % 0.01 in
08:37 56.7 °F 55 °F 30 in WSW 6 mph 8 mph 94 % 0 in
08:42 56.7 °F 55 °F 30 in WNW 5 mph 8 mph 94 % 0 in
08:47 56.7 °F 55 °F 30 in WNW 7 mph 8 mph 94 % 0 in
08:57 56.7 °F 54.7 °F 30 in WNW 5 mph 10 mph 93 % 0 in
09:02 56.7 °F 54.7 °F 30 in WSW 1 mph 10 mph 93 % 0 in
09:12 56.5 °F 54.5 °F 30 in WNW 4 mph 8 mph 93 % 0 in
09:17 56.5 °F 54.5 °F 30 in West 4 mph 11 mph 93 % 0 in
09:22 56.5 °F 54.5 °F 30 in West 8 mph 11 mph 93 % 0 in
09:27 56.5 °F 54.5 °F 30 in West 8 mph 12 mph 93 % 0 in
09:32 56.5 °F 54.5 °F 30 in WNW 7 mph 12 mph 93 % 0 in
09:37 56.5 °F 54.5 °F 30 in West 5 mph 12 mph 93 % 0 in
09:42 56.5 °F 54.5 °F 30 in WSW 4 mph 12 mph 93 % 0 in
09:47 56.5 °F 54.5 °F 30 in West 3 mph 10 mph 93 % 0 in
09:52 56.5 °F 54.9 °F 30 in West 1 mph 10 mph 94 % 0 in
09:57 56.5 °F 54.5 °F 30 in West 6 mph 10 mph 93 % 0 in
10:02 56.5 °F 54.9 °F 30 in WNW 6 mph 10 mph 94 % 0 in
10:07 56.5 °F 54.5 °F 30 in WSW 9 mph 11 mph 93 % 0 in
10:12 56.5 °F 54.5 °F 30.1 in West 10 mph 11 mph 93 % 0 in
10:17 56.7 °F 55 °F 30.1 in WNW 8 mph 13 mph 94 % 0 in
10:22 56.7 °F 55 °F 30.1 in SW 1 mph 13 mph 94 % 0 in
10:27 56.8 °F 55.2 °F 30.1 in WNW 3 mph 13 mph 94 % 0 in
10:32 56.8 °F 55.2 °F 30.1 in West 2 mph 11 mph 94 % 0 in
10:42 56.8 °F 55.2 °F 30.1 in WNW 4 mph 11 mph 94 % 0 in
10:47 57 °F 55.2 °F 30.1 in WSW 2 mph 11 mph 94 % 0 in
10:57 57 °F 55 °F 30.1 in West 5 mph 9 mph 93 % 0 in
11:02 57 °F 55 °F 30.1 in West 4 mph 9 mph 93 % 0 in
11:12 57.2 °F 55.2 °F 30.1 in West 7 mph 13 mph 93 % 0 in
11:17 57.4 °F 55.4 °F 30.1 in WNW 6 mph 13 mph 93 % 0 in
11:22 57.4 °F 55.4 °F 30.1 in SSW 5 mph 12 mph 93 % 0 in
11:27 57.6 °F 55.6 °F 30.1 in WSW 6 mph 12 mph 93 % 0 in
11:32 57.6 °F 55.6 °F 30.1 in WNW 7 mph 12 mph 93 % 0 in
11:37 57.6 °F 55.6 °F 30.1 in WSW 6 mph 14 mph 93 % 0 in
11:42 57.4 °F 55.4 °F 30.1 in WSW 6 mph 14 mph 93 % 0 in
11:52 57.6 °F 55.8 °F 30.1 in WSW 5 mph 15 mph 94 % 0 in
11:57 57.6 °F 55.8 °F 30.1 in WSW 12 mph 12 mph 94 % 0 in
12:02 57.6 °F 55.6 °F 30.1 in West 6 mph 13 mph 93 % 0 in
12:12 57.6 °F 55.6 °F 30.1 in West 10 mph 13 mph 93 % 0.01 in
12:17 57.6 °F 55.6 °F 30.1 in West 6 mph 13 mph 93 % 0.01 in
12:22 57.7 °F 55.8 °F 30.1 in West 5 mph 13 mph 93 % 0.01 in
12:32 57.9 °F 55.9 °F 30.1 in WNW 4 mph 11 mph 93 % 0.01 in
12:42 58.3 °F 56.3 °F 30.1 in West 3 mph 11 mph 93 % 0.02 in
12:52 58.6 °F 56.3 °F 30.1 in West 5 mph 13 mph 92 % 0.02 in
12:57 58.6 °F 56.3 °F 30.1 in West 6 mph 13 mph 92 % 0.02 in
13:02 58.6 °F 56.3 °F 30.1 in WSW 5 mph 10 mph 92 % 0.02 in
13:07 58.6 °F 56.3 °F 30.1 in NW 7 mph 10 mph 92 % 0.03 in
13:12 58.6 °F 56.7 °F 30.1 in WNW 4 mph 10 mph 93 % 0.03 in
13:17 58.6 °F 56.7 °F 30.1 in WSW 4 mph 10 mph 93 % 0.03 in
13:22 58.8 °F 56.5 °F 30.1 in West 10 mph 10 mph 92 % 0.03 in
13:27 58.8 °F 56.5 °F 30.1 in WSW 5 mph 11 mph 92 % 0.04 in
13:32 59.2 °F 57.2 °F 30.1 in WSW 6 mph 11 mph 93 % 0.04 in
13:37 59.2 °F 56.8 °F 30.1 in West 6 mph 12 mph 92 % 0.03 in
13:42 59.2 °F 56.8 °F 30.1 in West 5 mph 12 mph 92 % 0.03 in
13:52 59.2 °F 56.8 °F 30.1 in West 4 mph 12 mph 92 % 0.03 in
13:57 59.5 °F 57.2 °F 30.1 in SW 3 mph 14 mph 92 % 0.02 in
14:02 59.5 °F 56.8 °F 30.1 in West 7 mph 14 mph 91 % 0.02 in
14:12 59.5 °F 57.2 °F 30.1 in WSW 10 mph 12 mph 92 % 0.01 in
14:17 59.7 °F 57.4 °F 30.1 in SW 6 mph 11 mph 92 % 0.01 in
14:22 59.7 °F 57.4 °F 30.1 in SW 6 mph 11 mph 92 % 0 in
14:32 59.7 °F 57.4 °F 30.1 in SW 6 mph 15 mph 92 % 0 in
14:42 59.9 °F 57.6 °F 30.1 in WSW 6 mph 15 mph 92 % 0.01 in
14:47 59.9 °F 57.9 °F 30.1 in West 2 mph 12 mph 93 % 0.01 in
14:52 59.9 °F 57.9 °F 30.1 in WSW 6 mph 9 mph 93 % 0.02 in
14:57 60.1 °F 58.1 °F 30.1 in SSW 4 mph 11 mph 93 % 0.02 in
15:02 60.1 °F 57.7 °F 30.1 in SW 4 mph 11 mph 92 % 0.02 in
15:12 60.6 °F 58.6 °F 30.1 in WSW 3 mph 9 mph 93 % 0.02 in
15:22 60.6 °F 58.3 °F 30.1 in SW 11 mph 11 mph 92 % 0.02 in
15:27 60.6 °F 58.3 °F 30.1 in SW 9 mph 13 mph 92 % 0.02 in
15:32 61 °F 58.6 °F 30.1 in SW 4 mph 13 mph 92 % 0.02 in
15:37 61 °F 59 °F 30.1 in WSW 8 mph 13 mph 93 % 0.02 in
15:42 60.8 °F 58.5 °F 30.1 in WSW 4 mph 11 mph 92 % 0.02 in
15:52 61 °F 59 °F 30.1 in West 3 mph 12 mph 93 % 0.02 in
16:02 61 °F 58.6 °F 30.1 in WSW 10 mph 11 mph 92 % 0.02 in
16:12 61.2 °F 58.8 °F 30.1 in SW 5 mph 10 mph 92 % 0.02 in
16:17 61.2 °F 58.8 °F 30.1 in WSW 11 mph 11 mph 92 % 0.02 in
16:22 60.8 °F 58.8 °F 30.1 in SW 5 mph 13 mph 93 % 0.02 in
16:27 60.4 °F 58.1 °F 30.1 in WSW 9 mph 16 mph 92 % 0.04 in
16:32 59.9 °F 57.9 °F 30.1 in West 5 mph 16 mph 93 % 0.07 in
16:37 59.5 °F 57.6 °F 30.1 in WSW 15 mph 16 mph 93 % 0.08 in
16:42 59.4 °F 57.6 °F 30.1 in WSW 9 mph 18 mph 94 % 0.09 in
16:47 59.4 °F 57.6 °F 30.1 in West 8 mph 18 mph 94 % 0.09 in
16:52 59.2 °F 57.2 °F 30.1 in West 5 mph 18 mph 93 % 0.09 in
16:57 59.2 °F 57.2 °F 30.1 in West 6 mph 13 mph 93 % 0.09 in
17:02 59.4 °F 57.4 °F 30.1 in SW 6 mph 12 mph 93 % 0.09 in
17:12 59.5 °F 57.6 °F 30.1 in WNW 4 mph 14 mph 93 % 0.09 in
17:17 59.5 °F 57.7 °F 30.1 in SW 6 mph 14 mph 94 % 0.08 in
17:22 59.7 °F 57.9 °F 30.1 in WSW 3 mph 12 mph 94 % 0.07 in
17:27 59.7 °F 57.9 °F 30.1 in West 6 mph 15 mph 94 % 0.06 in
17:32 59.7 °F 57.9 °F 30.1 in WSW 7 mph 15 mph 94 % 0.05 in
17:42 59.7 °F 57.9 °F 30.1 in WNW 5 mph 15 mph 94 % 0.05 in
17:47 59.7 °F 57.9 °F 30.1 in WSW 4 mph 13 mph 94 % 0.05 in
17:52 59.7 °F 57.9 °F 30.1 in WNW 5 mph 9 mph 94 % 0.05 in
17:57 59.7 °F 57.9 °F 30.1 in WNW 2 mph 9 mph 94 % 0.06 in
18:02 59.5 °F 58.1 °F 30.1 in NW 4 mph 8 mph 95 % 0.09 in
18:07 59.4 °F 57.9 °F 30.1 in WSW 1 mph 10 mph 95 % 0.11 in
18:12 59.4 °F 57.9 °F 30.1 in WNW 12 mph 12 mph 95 % 0.12 in
18:17 59.4 °F 57.9 °F 30.1 in WNW 9 mph 10 mph 95 % 0.12 in
18:22 59.2 °F 57.7 °F 30.1 in West 2 mph 14 mph 95 % 0.13 in
18:32 59.2 °F 57.7 °F 30.1 in NW 3 mph 11 mph 95 % 0.12 in
18:37 59 °F 57.6 °F 30.1 in WNW 5 mph 12 mph 95 % 0.11 in
18:42 59.2 °F 57.7 °F 30.1 in NW 2 mph 12 mph 95 % 0.09 in
18:52 59.2 °F 57.7 °F 30.1 in WNW 4 mph 7 mph 95 % 0.09 in
18:57 59.2 °F 57.7 °F 30.1 in WNW 1 mph 10 mph 95 % 0.06 in
19:02 59.2 °F 57.4 °F 30.1 in WNW 3 mph 10 mph 94 % 0.04 in
19:07 59.2 °F 57.4 °F 30.1 in WNW 4 mph 7 mph 94 % 0.02 in
19:12 59.4 °F 57.6 °F 30.1 in West 4 mph 9 mph 94 % 0.02 in
19:17 59.4 °F 57.6 °F 30.1 in NNW 4 mph 9 mph 94 % 0.01 in
19:22 59.4 °F 57.6 °F 30.1 in NW 2 mph 9 mph 94 % 0.01 in
19:32 59.4 °F 57.6 °F 30.1 in WNW 2 mph 7 mph 94 % 0 in
19:37 59.2 °F 57.4 °F 30.1 in NNW 3 mph 7 mph 94 % 0 in
19:42 59.2 °F 57.4 °F 30.2 in WNW 2 mph 8 mph 94 % 0 in
19:47 59.4 °F 57.6 °F 30.2 in WNW 5 mph 8 mph 94 % 0 in
19:52 59.4 °F 57.6 °F 30.2 in WNW 3 mph 8 mph 94 % 0 in
19:57 59.2 °F 57.4 °F 30.2 in NW 3 mph 7 mph 94 % 0 in
20:02 59.2 °F 57.4 °F 30.2 in NW 2 mph 9 mph 94 % 0 in
20:12 59.2 °F 57.4 °F 30.2 in WNW 1 mph 7 mph 94 % 0 in
20:22 59.2 °F 57.4 °F 30.2 in NW 2 mph 4 mph 94 % 0 in
20:32 59.2 °F 57.4 °F 30.2 in WNW 2 mph 7 mph 94 % 0 in
20:37 59.2 °F 57.4 °F 30.2 in NW 2 mph 7 mph 94 % 0 in
20:42 59.2 °F 57.4 °F 30.2 in WNW 2 mph 6 mph 94 % 0 in
20:47 59 °F 57.2 °F 30.2 in NNW 2 mph 5 mph 94 % 0 in
20:52 59 °F 57.2 °F 30.2 in NW 2 mph 4 mph 94 % 0 in
20:57 58.8 °F 57 °F 30.2 in WNW 1 mph 3 mph 94 % 0 in
21:02 58.8 °F 57 °F 30.2 in West 3 mph 4 mph 94 % 0 in
21:12 58.8 °F 57 °F 30.2 in WSW 1 mph 4 mph 94 % 0 in
21:22 58.8 °F 57 °F 30.2 in Calm   6 mph 94 % 0 in
21:32 58.8 °F 57 °F 30.2 in WNW 1 mph 6 mph 94 % 0 in
21:37 58.8 °F 57 °F 30.2 in Calm   4 mph 94 % 0 in
21:42 58.6 °F 56.8 °F 30.2 in Calm   3 mph 94 % 0 in
21:52 58.6 °F 56.8 °F 30.2 in West 3 mph 4 mph 94 % 0 in
21:57 58.6 °F 56.8 °F 30.2 in West 2 mph 5 mph 94 % 0 in
22:02 58.6 °F 56.8 °F 30.2 in Calm   5 mph 94 % 0 in
22:12 58.8 °F 57 °F 30.2 in Calm   4 mph 94 % 0 in
22:22 58.6 °F 56.7 °F 30.2 in Calm   2 mph 93 % 0 in
22:32 58.6 °F 56.8 °F 30.2 in West 1 mph 3 mph 94 % 0 in
22:42 58.8 °F 57 °F 30.2 in Calm   6 mph 94 % 0 in
22:47 58.8 °F 57 °F 30.2 in NW 2 mph 6 mph 94 % 0 in
22:52 58.8 °F 57 °F 30.2 in Calm   6 mph 94 % 0 in
22:57 58.8 °F 57 °F 30.2 in Calm   4 mph 94 % 0 in
23:02 59 °F 57.2 °F 30.2 in West 1 mph 3 mph 94 % 0 in
23:12 59 °F 57.2 °F 30.2 in West 2 mph 4 mph 94 % 0 in
23:17 59.2 °F 57.4 °F 30.2 in West 2 mph 4 mph 94 % 0 in
23:22 59.2 °F 57.7 °F 30.2 in West 1 mph 4 mph 95 % 0 in
23:27 59.2 °F 57.7 °F 30.2 in WNW 3 mph 5 mph 95 % 0 in
23:32 59.4 °F 57.9 °F 30.2 in West 2 mph 5 mph 95 % 0 in
23:37 59.4 °F 57.9 °F 30.2 in Calm   5 mph 95 % 0 in
23:42 59.4 °F 57.6 °F 30.2 in Calm   4 mph 94 % 0 in
23:47 59.2 °F 57.4 °F 30.2 in SW 1 mph 4 mph 94 % 0 in
23:52 59.2 °F 57.4 °F 30.2 in Calm   4 mph 94 % 0 in
23:57 58.8 °F 57 °F 30.2 in ESE 1 mph 2 mph 94 % 0 in
Meteo18
Compliments of Weather Underground - 4 mb

Script developed by  Jim McMurry - jmcmurry@mwt.net Adapted for the template by  Wim van der Kuil - Leuven-Template.eu

You find our weather info also at:

European Weather Network

Weather Underground

Equipment we use:

Weather-station
Davis Vue

Weather-program
Meteohub

Weather-server
Raspberry PI 2 B+

Provider
1 and 1

Davis Vue

Meteohub

Raspberry PI 2 B+

1 and 1